createdAt,value
2023-05-16T00:00:06.840Z,2.07
2023-05-16T00:02:36.152Z,1.90
2023-05-16T00:05:07.800Z,1.50
2023-05-16T00:07:36.514Z,1.70
2023-05-16T00:10:05.111Z,1.83
2023-05-16T00:12:34.021Z,1.63
2023-05-16T00:15:02.438Z,1.53
2023-05-16T00:17:30.705Z,1.60
2023-05-16T00:20:00.228Z,1.77
2023-05-16T00:22:30.299Z,1.50
2023-05-16T00:24:58.613Z,1.80
2023-05-16T00:27:27.025Z,1.90
2023-05-16T00:29:55.397Z,1.70
2023-05-16T00:32:23.987Z,2.00
2023-05-16T00:34:52.401Z,1.50
2023-05-16T00:37:22.385Z,2.13
2023-05-16T00:39:52.116Z,1.80
2023-05-16T00:42:21.901Z,2.23
2023-05-16T00:44:50.392Z,2.20
2023-05-16T00:47:18.972Z,1.50
2023-05-16T00:49:47.300Z,2.00
2023-05-16T00:52:17.886Z,2.10
2023-05-16T00:54:47.664Z,2.00
2023-05-16T00:57:17.616Z,2.50
2023-05-16T00:59:47.278Z,2.37
2023-05-16T01:02:16.044Z,2.93
2023-05-16T01:04:44.879Z,2.70
2023-05-16T01:07:13.443Z,2.57
2023-05-16T01:09:41.919Z,1.97
2023-05-16T01:12:15.831Z,2.50
2023-05-16T01:14:53.492Z,1.87
2023-05-16T01:17:30.546Z,2.40
2023-05-16T01:20:08.158Z,2.50
2023-05-16T01:22:49.043Z,2.70
2023-05-16T01:25:33.112Z,2.50
2023-05-16T01:28:03.628Z,2.40
2023-05-16T01:30:36.343Z,2.03
2023-05-16T01:33:05.047Z,2.93
2023-05-16T01:35:34.291Z,2.27
2023-05-16T01:38:12.038Z,3.43
2023-05-16T01:40:54.237Z,2.60
2023-05-16T01:43:31.886Z,3.10
2023-05-16T01:46:06.402Z,2.60
2023-05-16T01:48:40.147Z,2.60
2023-05-16T01:51:08.895Z,2.93
2023-05-16T01:53:39.967Z,3.47
2023-05-16T01:56:12.550Z,2.60
2023-05-16T01:58:43.541Z,2.57
2023-05-16T02:01:14.015Z,2.30
2023-05-16T02:03:42.490Z,3.33
2023-05-16T02:06:10.788Z,3.20
2023-05-16T02:08:39.043Z,3.10
2023-05-16T02:11:07.391Z,2.77
2023-05-16T02:13:35.672Z,2.43
2023-05-16T02:16:06.881Z,3.53
2023-05-16T02:18:36.804Z,3.00
2023-05-16T02:21:06.840Z,2.93
2023-05-16T02:23:35.184Z,3.00
2023-05-16T02:26:03.503Z,3.17
2023-05-16T02:28:32.091Z,2.53
2023-05-16T02:31:00.784Z,3.50
2023-05-16T02:33:30.705Z,3.47
2023-05-16T02:35:59.041Z,3.30
2023-05-16T02:38:27.799Z,3.60
2023-05-16T02:40:57.653Z,3.47
2023-05-16T02:43:25.997Z,3.97
2023-05-16T02:45:54.360Z,3.40
2023-05-16T02:48:22.759Z,2.90
2023-05-16T02:50:53.171Z,3.00
2023-05-16T02:53:21.501Z,3.07
2023-05-16T02:55:49.778Z,2.90
2023-05-16T02:58:18.230Z,3.30
2023-05-16T03:00:46.510Z,3.20
2023-05-16T03:03:14.950Z,3.27
2023-05-16T03:05:43.296Z,3.60
2023-05-16T03:08:13.084Z,3.83
2023-05-16T03:10:41.508Z,3.37
2023-05-16T03:13:09.832Z,3.80
2023-05-16T03:15:39.069Z,3.07
2023-05-16T03:18:07.933Z,3.87
2023-05-16T03:20:36.284Z,2.90
2023-05-16T03:23:07.731Z,2.70
2023-05-16T03:25:39.457Z,3.40
2023-05-16T03:28:08.167Z,3.57
2023-05-16T03:30:36.703Z,3.63
2023-05-16T03:33:05.613Z,3.03
2023-05-16T03:35:35.833Z,3.13
2023-05-16T03:38:04.595Z,3.20
2023-05-16T03:40:32.995Z,3.00
2023-05-16T03:43:02.883Z,2.70
2023-05-16T03:45:31.637Z,3.00
2023-05-16T03:48:00.365Z,4.00
2023-05-16T03:50:28.831Z,2.50
2023-05-16T03:52:57.153Z,2.90
2023-05-16T03:55:25.793Z,2.47
2023-05-16T03:57:54.620Z,3.23
2023-05-16T04:00:24.369Z,2.93
2023-05-16T04:02:52.997Z,3.70
2023-05-16T04:05:21.770Z,2.60
2023-05-16T04:07:50.065Z,2.60
2023-05-16T04:10:18.447Z,3.17
2023-05-16T04:12:46.909Z,2.53
2023-05-16T04:15:15.267Z,2.80
2023-05-16T04:17:44.959Z,3.70
2023-05-16T04:20:13.542Z,3.47
2023-05-16T04:22:41.931Z,2.67
2023-05-16T04:25:11.252Z,2.77
2023-05-16T04:27:39.770Z,2.57
2023-05-16T04:30:09.774Z,2.90
2023-05-16T04:32:38.289Z,2.57
2023-05-16T04:35:09.210Z,3.20
2023-05-16T04:37:38.098Z,2.60
2023-05-16T04:40:07.861Z,2.70
2023-05-16T04:42:36.305Z,3.73
2023-05-16T04:45:06.756Z,2.83
2023-05-16T04:47:35.241Z,2.83
2023-05-16T04:50:03.854Z,2.90
2023-05-16T04:52:33.835Z,2.70
2023-05-16T04:55:02.457Z,2.60
2023-05-16T04:57:30.851Z,2.43
2023-05-16T04:59:59.251Z,3.00
2023-05-16T05:02:27.655Z,3.63
2023-05-16T05:04:56.075Z,3.00
2023-05-16T05:07:28.094Z,2.57
2023-05-16T05:09:57.762Z,2.70
2023-05-16T05:12:27.216Z,3.50
2023-05-16T05:14:55.940Z,3.63
2023-05-16T05:17:24.556Z,2.23
2023-05-16T05:19:53.169Z,2.40
2023-05-16T05:22:21.480Z,2.50
2023-05-16T05:24:49.868Z,2.83
2023-05-16T05:27:19.553Z,2.47
2023-05-16T05:29:47.907Z,2.90
2023-05-16T05:32:16.223Z,2.27
2023-05-16T05:34:44.609Z,2.73
2023-05-16T05:37:12.881Z,3.13
2023-05-16T05:39:41.275Z,4.37
2023-05-16T05:42:09.609Z,3.07
2023-05-16T05:44:39.514Z,3.33
2023-05-16T05:47:08.840Z,3.13
2023-05-16T05:49:37.212Z,2.83
2023-05-16T05:52:06.196Z,3.80
2023-05-16T05:54:34.899Z,3.00
2023-05-16T05:57:03.218Z,2.73
2023-05-16T05:59:31.592Z,3.10
2023-05-16T06:02:01.709Z,3.13
2023-05-16T06:04:30.048Z,2.47
2023-05-16T06:06:58.443Z,2.50
2023-05-16T06:09:26.769Z,3.40
2023-05-16T06:11:55.259Z,2.90
2023-05-16T06:14:23.630Z,2.83
2023-05-16T06:16:51.995Z,2.70
2023-05-16T06:19:21.846Z,2.73
2023-05-16T06:21:50.254Z,2.60
2023-05-16T06:24:18.570Z,2.43
2023-05-16T06:26:50.097Z,3.10
2023-05-16T06:29:18.682Z,1.90
2023-05-16T06:31:48.171Z,2.97
2023-05-16T06:34:16.589Z,2.20
2023-05-16T06:36:46.345Z,2.90
2023-05-16T06:39:14.873Z,2.50
2023-05-16T06:41:43.219Z,2.50
2023-05-16T06:44:17.533Z,2.87
2023-05-16T06:46:45.986Z,3.23
2023-05-16T06:49:14.408Z,3.43
2023-05-16T06:51:42.720Z,3.50
2023-05-16T06:54:12.599Z,2.93
2023-05-16T06:56:41.147Z,3.00
2023-05-16T06:59:09.732Z,2.47
2023-05-16T07:01:38.205Z,1.70
2023-05-16T07:04:07.030Z,1.83
2023-05-16T07:06:35.553Z,2.90
2023-05-16T07:09:04.734Z,2.63
2023-05-16T07:11:34.547Z,2.80
2023-05-16T07:14:02.944Z,2.90
2023-05-16T07:16:31.410Z,2.27
2023-05-16T07:18:59.887Z,1.83
2023-05-16T07:21:28.315Z,1.77
2023-05-16T07:23:56.756Z,2.07
2023-05-16T07:26:25.128Z,2.27
2023-05-16T07:28:55.421Z,2.63
2023-05-16T07:31:24.311Z,2.83
2023-05-16T07:33:52.922Z,2.27
2023-05-16T07:36:21.311Z,2.60
2023-05-16T07:38:49.750Z,2.40
2023-05-16T07:41:18.100Z,2.60
2023-05-16T07:43:46.521Z,2.03
2023-05-16T07:46:16.463Z,1.90
2023-05-16T07:48:44.906Z,1.60
2023-05-16T07:51:13.548Z,2.73
2023-05-16T07:53:42.084Z,2.30
2023-05-16T07:56:10.947Z,1.77
2023-05-16T07:58:40.053Z,2.53
2023-05-16T08:01:08.886Z,2.73
2023-05-16T08:03:39.053Z,2.13
2023-05-16T08:06:07.924Z,2.07
2023-05-16T08:08:36.528Z,2.40
2023-05-16T08:11:05.786Z,1.90
2023-05-16T08:13:34.368Z,2.33
2023-05-16T08:16:02.860Z,2.43
2023-05-16T08:18:32.410Z,2.50
2023-05-16T08:21:02.334Z,1.97
2023-05-16T08:23:30.757Z,1.80
2023-05-16T08:25:59.560Z,2.30
2023-05-16T08:28:28.047Z,1.67
2023-05-16T08:30:56.500Z,1.80
2023-05-16T08:33:24.944Z,2.00
2023-05-16T08:35:53.960Z,1.87
2023-05-16T08:38:23.678Z,2.53
2023-05-16T08:40:52.112Z,1.67
2023-05-16T08:43:20.561Z,1.70
2023-05-16T08:45:49.047Z,1.60
2023-05-16T08:48:20.538Z,1.80
2023-05-16T08:50:49.010Z,2.23
2023-05-16T08:53:28.157Z,1.53
2023-05-16T08:55:57.315Z,1.67
2023-05-16T08:58:26.905Z,2.00
2023-05-16T09:00:56.227Z,1.87
2023-05-16T09:03:25.857Z,1.70
2023-05-16T09:05:54.294Z,1.97
2023-05-16T09:08:24.480Z,1.97
2023-05-16T09:10:53.177Z,1.77
2023-05-16T09:13:21.561Z,1.40
2023-05-16T09:16:10.085Z,1.73
2023-05-16T09:18:38.743Z,1.47
2023-05-16T09:21:08.106Z,1.40
2023-05-16T09:23:38.387Z,1.87
2023-05-16T09:26:08.096Z,1.93
2023-05-16T09:28:39.458Z,2.17
2023-05-16T09:31:22.916Z,2.10
2023-05-16T09:33:51.441Z,2.00
2023-05-16T09:36:19.979Z,1.67
2023-05-16T09:38:51.169Z,2.10
2023-05-16T09:41:20.209Z,1.47
2023-05-16T09:43:48.718Z,2.40
2023-05-16T09:46:17.473Z,1.87
2023-05-16T09:48:47.501Z,1.97
2023-05-16T09:51:16.472Z,1.73
2023-05-16T09:53:45.211Z,1.63
2023-05-16T09:56:16.498Z,2.10
2023-05-16T09:58:46.567Z,1.60
2023-05-16T10:01:14.946Z,1.60
2023-05-16T10:03:44.275Z,1.47
2023-05-16T10:06:14.524Z,1.90
2023-05-16T10:08:44.292Z,1.30
2023-05-16T10:11:15.290Z,1.77
2023-05-16T10:13:45.030Z,2.00
2023-05-16T10:16:15.135Z,1.90
2023-05-16T10:18:44.492Z,1.50
2023-05-16T10:21:16.805Z,1.43
2023-05-16T10:23:48.685Z,1.63
2023-05-16T10:26:19.327Z,2.70
2023-05-16T10:28:48.133Z,1.67
2023-05-16T10:31:17.176Z,1.60
2023-05-16T10:33:45.805Z,2.07
2023-05-16T10:36:15.706Z,1.70
2023-05-16T10:38:46.219Z,1.50
2023-05-16T10:41:15.011Z,1.27
2023-05-16T10:43:47.465Z,1.73
2023-05-16T10:46:16.043Z,1.80
2023-05-16T10:48:44.487Z,1.70
2023-05-16T10:51:39.819Z,1.70
2023-05-16T10:54:12.699Z,1.80
2023-05-16T10:56:41.464Z,1.97
2023-05-16T10:59:28.529Z,1.67
2023-05-16T11:01:57.706Z,1.77
2023-05-16T11:04:49.884Z,1.43
2023-05-16T11:07:19.278Z,1.60
2023-05-16T11:09:47.780Z,1.27
2023-05-16T11:12:16.257Z,1.40
2023-05-16T11:14:51.846Z,1.50
2023-05-16T11:17:23.593Z,1.30
2023-05-16T11:19:53.293Z,1.90
2023-05-16T11:22:26.795Z,1.47
2023-05-16T11:24:58.215Z,1.40
2023-05-16T11:27:29.429Z,2.07
2023-05-16T11:30:15.578Z,3.10
2023-05-16T11:32:47.141Z,1.33
2023-05-16T11:35:17.085Z,1.60
2023-05-16T11:37:47.106Z,1.47
2023-05-16T11:40:17.364Z,1.30
2023-05-16T11:42:47.617Z,1.20
2023-05-16T11:45:19.388Z,1.70
2023-05-16T11:47:49.390Z,1.57
2023-05-16T11:50:18.909Z,1.13
2023-05-16T11:52:49.157Z,2.17
2023-05-16T11:55:28.164Z,1.70
2023-05-16T11:58:08.187Z,1.60
2023-05-16T12:00:38.122Z,1.20
2023-05-16T12:03:08.166Z,1.40
2023-05-16T12:05:36.840Z,1.50
2023-05-16T12:08:06.773Z,1.10
2023-05-16T12:10:35.332Z,1.40
2023-05-16T12:13:04.664Z,1.00
2023-05-16T12:15:33.135Z,1.30
2023-05-16T12:18:03.506Z,1.07
2023-05-16T12:20:32.220Z,1.17
2023-05-16T12:23:00.914Z,0.83
2023-05-16T12:25:32.166Z,0.80
2023-05-16T12:28:01.912Z,1.53
2023-05-16T12:30:32.621Z,1.10
2023-05-16T12:33:07.919Z,1.43
2023-05-16T12:35:39.363Z,1.20
2023-05-16T12:38:08.752Z,1.07
2023-05-16T12:40:39.552Z,0.90
2023-05-16T12:43:14.841Z,1.10
2023-05-16T12:45:44.451Z,0.80
2023-05-16T12:48:17.256Z,1.60
2023-05-16T12:50:46.480Z,1.20
2023-05-16T12:53:15.962Z,1.07
2023-05-16T12:55:45.171Z,0.73
2023-05-16T12:58:15.583Z,1.20
2023-05-16T13:00:44.055Z,1.57
2023-05-16T13:03:12.470Z,0.80
2023-05-16T13:05:42.418Z,1.00
2023-05-16T13:08:10.915Z,0.80
2023-05-16T13:10:39.521Z,1.20
2023-05-16T13:13:08.348Z,1.07
2023-05-16T13:15:38.451Z,1.03
2023-05-16T13:18:06.999Z,1.07
2023-05-16T13:20:35.480Z,0.97
2023-05-16T13:23:05.473Z,1.10
2023-05-16T13:25:35.145Z,0.87
2023-05-16T13:28:03.820Z,1.27
2023-05-16T13:30:32.521Z,1.77
2023-05-16T13:33:00.970Z,1.20
2023-05-16T13:35:29.811Z,1.07
2023-05-16T13:37:58.327Z,1.13
2023-05-16T13:40:29.521Z,1.43
2023-05-16T13:42:58.193Z,1.00
2023-05-16T13:45:27.852Z,1.80
2023-05-16T13:47:56.530Z,1.33
2023-05-16T13:50:24.954Z,1.10
2023-05-16T13:52:53.319Z,0.90
2023-05-16T13:55:21.934Z,1.20
2023-05-16T13:57:51.660Z,1.60
2023-05-16T14:02:52.949Z,1.27
2023-05-16T14:05:21.543Z,1.30
2023-05-16T14:07:50.367Z,1.37
2023-05-16T14:10:18.822Z,1.00
2023-05-16T14:12:47.249Z,1.30
2023-05-16T14:15:17.020Z,1.07
2023-05-16T14:17:45.923Z,1.50
2023-05-16T14:20:15.537Z,1.57
2023-05-16T14:22:43.913Z,2.10
2023-05-16T14:25:12.395Z,2.20
2023-05-16T14:27:41.466Z,1.50
2023-05-16T14:30:11.186Z,1.47
2023-05-16T14:32:41.154Z,2.37
2023-05-16T14:35:10.598Z,1.63
2023-05-16T14:37:39.147Z,1.83
2023-05-16T14:40:09.182Z,1.43
2023-05-16T14:42:37.582Z,1.50
2023-05-16T14:45:06.816Z,1.97
2023-05-16T14:47:35.633Z,2.23
2023-05-16T14:50:06.107Z,1.83
2023-05-16T14:52:34.786Z,2.10
2023-05-16T14:55:03.472Z,1.73
2023-05-16T14:57:32.012Z,1.70
2023-05-16T15:00:00.307Z,1.90
2023-05-16T15:02:28.739Z,1.77
2023-05-16T15:04:57.330Z,1.40
2023-05-16T15:07:27.374Z,1.53
2023-05-16T15:09:58.394Z,1.90
2023-05-16T15:12:26.833Z,1.47
2023-05-16T15:14:55.503Z,1.40
2023-05-16T15:17:24.107Z,1.70
2023-05-16T15:19:54.319Z,1.93
2023-05-16T15:22:23.150Z,1.50
2023-05-16T15:24:52.970Z,1.70
2023-05-16T15:27:21.836Z,2.10
2023-05-16T15:29:50.310Z,1.73
2023-05-16T15:32:18.900Z,1.67
2023-05-16T15:34:47.413Z,1.73
2023-05-16T15:37:15.835Z,1.60
2023-05-16T15:39:44.697Z,1.50
2023-05-16T15:42:14.512Z,1.40
2023-05-16T15:44:42.996Z,1.50
2023-05-16T15:47:11.387Z,1.37
2023-05-16T15:49:40.720Z,1.73
2023-05-16T15:52:09.734Z,1.80
2023-05-16T15:54:38.311Z,1.60
2023-05-16T15:57:06.975Z,1.67
2023-05-16T15:59:36.871Z,1.90
2023-05-16T16:02:05.599Z,1.40
2023-05-16T16:04:34.217Z,1.60
2023-05-16T16:07:03.712Z,2.23
2023-05-16T16:09:32.043Z,2.00
2023-05-16T16:12:00.616Z,1.93
2023-05-16T16:14:29.169Z,1.80
2023-05-16T16:16:58.863Z,2.07
2023-05-16T16:19:27.358Z,1.60
2023-05-16T16:21:56.606Z,2.20
2023-05-16T16:24:25.224Z,2.87
2023-05-16T16:26:53.707Z,3.00
2023-05-16T16:29:22.099Z,2.33
2023-05-16T16:31:50.654Z,1.80
2023-05-16T16:34:23.077Z,2.27
2023-05-16T16:36:51.791Z,2.37
2023-05-16T16:39:20.172Z,2.27
2023-05-16T16:41:48.487Z,1.97
2023-05-16T16:44:16.958Z,1.90
2023-05-16T16:46:45.413Z,1.80
2023-05-16T16:49:13.843Z,2.30
2023-05-16T16:51:43.634Z,1.70
2023-05-16T16:54:11.955Z,1.77
2023-05-16T16:56:40.357Z,1.70
2023-05-16T16:59:08.690Z,1.97
2023-05-16T17:01:37.139Z,1.80
2023-05-16T17:04:05.781Z,1.97
2023-05-16T17:06:34.441Z,2.07
2023-05-16T17:09:06.731Z,1.30
2023-05-16T17:11:36.407Z,1.57
2023-05-16T17:14:06.299Z,1.40
2023-05-16T17:16:35.249Z,1.60
2023-05-16T17:19:04.895Z,1.80
2023-05-16T17:21:34.643Z,2.13
2023-05-16T17:24:04.989Z,2.13
2023-05-16T17:26:33.401Z,2.00
2023-05-16T17:29:02.626Z,1.60
2023-05-16T17:31:31.243Z,1.63
2023-05-16T17:33:59.742Z,1.70
2023-05-16T17:36:28.109Z,1.43
2023-05-16T17:38:56.611Z,2.20
2023-05-16T17:41:26.443Z,2.23
2023-05-16T17:43:54.890Z,1.93
2023-05-16T17:46:23.375Z,1.60
2023-05-16T17:48:51.814Z,2.10
2023-05-16T17:51:20.217Z,2.00
2023-05-16T17:53:50.386Z,1.67
2023-05-16T17:56:18.943Z,1.90
2023-05-16T17:58:48.597Z,1.70
2023-05-16T18:01:16.979Z,2.57
2023-05-16T18:03:45.950Z,1.93
2023-05-16T18:06:14.620Z,2.03
2023-05-16T18:08:43.018Z,1.90
2023-05-16T18:11:11.773Z,3.33
2023-05-16T18:13:40.381Z,2.20
2023-05-16T18:16:10.593Z,2.63
2023-05-16T18:18:39.198Z,1.37
2023-05-16T18:21:07.707Z,2.37
2023-05-16T18:23:36.542Z,1.77
2023-05-16T18:26:04.969Z,1.37
2023-05-16T18:28:33.525Z,1.30
2023-05-16T18:31:03.211Z,1.87
2023-05-16T18:33:33.041Z,1.50
2023-05-16T18:36:01.411Z,2.10
2023-05-16T18:38:33.343Z,2.00
2023-05-16T18:41:02.630Z,1.87
2023-05-16T18:43:31.270Z,1.67
2023-05-16T18:45:59.685Z,1.70
2023-05-16T18:48:28.124Z,1.30
2023-05-16T18:50:57.919Z,1.70
2023-05-16T18:53:26.228Z,2.00
2023-05-16T18:55:54.712Z,1.80
2023-05-16T18:58:23.252Z,2.37
2023-05-16T19:00:51.989Z,1.63
2023-05-16T19:03:20.522Z,1.67
2023-05-16T19:05:49.671Z,2.37
2023-05-16T19:08:19.572Z,1.50
2023-05-16T19:10:48.358Z,1.40
2023-05-16T19:13:16.866Z,1.53
2023-05-16T19:15:45.357Z,1.73
2023-05-16T19:18:13.896Z,2.00
2023-05-16T19:20:44.415Z,1.50
2023-05-16T19:23:14.078Z,1.93
2023-05-16T19:25:47.780Z,1.60
2023-05-16T19:28:16.931Z,1.50
2023-05-16T19:30:45.531Z,1.50
2023-05-16T19:33:15.067Z,1.97
2023-05-16T19:35:43.847Z,1.53
2023-05-16T19:38:12.285Z,2.10
2023-05-16T19:40:40.661Z,1.63
2023-05-16T19:43:10.565Z,1.57
2023-05-16T19:45:39.160Z,1.50
2023-05-16T19:48:08.264Z,2.00
2023-05-16T19:50:36.898Z,1.50
2023-05-16T19:53:06.755Z,1.47
2023-05-16T19:55:37.873Z,1.70
2023-05-16T19:58:06.744Z,1.93
2023-05-16T20:00:36.561Z,1.60
2023-05-16T20:03:05.023Z,1.77
2023-05-16T20:05:33.678Z,2.60
2023-05-16T20:08:02.153Z,1.73
2023-05-16T20:10:30.565Z,1.50
2023-05-16T20:12:58.955Z,1.70
2023-05-16T20:15:27.729Z,2.07
2023-05-16T20:17:57.841Z,1.67
2023-05-16T20:20:26.368Z,1.77
2023-05-16T20:22:54.999Z,1.90
2023-05-16T20:25:23.371Z,1.70
2023-05-16T20:27:51.836Z,1.63
2023-05-16T20:30:20.226Z,1.90
2023-05-16T20:32:48.607Z,1.93
2023-05-16T20:35:18.581Z,1.77
2023-05-16T20:37:46.976Z,1.90
2023-05-16T20:40:15.408Z,1.03
2023-05-16T20:42:43.713Z,1.43
2023-05-16T20:45:12.698Z,1.47
2023-05-16T20:47:41.237Z,1.57
2023-05-16T20:50:10.563Z,1.30
2023-05-16T20:52:40.277Z,1.73
2023-05-16T20:55:09.084Z,1.87
2023-05-16T20:57:37.417Z,1.60
2023-05-16T21:00:07.259Z,1.20
2023-05-16T21:02:35.789Z,1.50
2023-05-16T21:05:22.953Z,1.87
2023-05-16T21:07:53.757Z,1.67
2023-05-16T21:10:22.262Z,1.43
2023-05-16T21:12:50.836Z,1.70
2023-05-16T21:15:21.574Z,1.57
2023-05-16T21:17:51.531Z,1.93
2023-05-16T21:20:20.230Z,1.53
2023-05-16T21:22:48.600Z,1.67
2023-05-16T21:25:18.355Z,1.30
2023-05-16T21:27:46.785Z,1.40
2023-05-16T21:30:15.702Z,1.60
2023-05-16T21:32:44.187Z,1.57
2023-05-16T21:35:12.546Z,1.97
2023-05-16T21:37:40.870Z,1.87
2023-05-16T21:40:10.319Z,1.97
2023-05-16T21:42:40.161Z,1.80
2023-05-16T21:45:12.632Z,1.33
2023-05-16T21:47:41.180Z,1.53
2023-05-16T21:50:10.530Z,2.00
2023-05-16T21:52:39.123Z,1.83
2023-05-16T21:55:08.156Z,1.10
2023-05-16T21:57:38.716Z,1.70
2023-05-16T22:00:09.976Z,2.20
2023-05-16T22:02:38.649Z,1.30
2023-05-16T22:05:07.984Z,1.97
2023-05-16T22:07:36.560Z,1.30
2023-05-16T22:10:05.887Z,1.90
2023-05-16T22:12:34.250Z,1.70
2023-05-16T22:15:02.569Z,1.63
2023-05-16T22:17:32.357Z,1.73
2023-05-16T22:20:02.190Z,1.47
2023-05-16T22:22:30.572Z,1.60
2023-05-16T22:24:59.286Z,1.37
2023-05-16T22:27:27.662Z,1.60
2023-05-16T22:29:55.997Z,1.50
2023-05-16T22:32:24.293Z,1.90
2023-05-16T22:34:54.141Z,1.80
2023-05-16T22:37:22.435Z,1.60
2023-05-16T22:39:51.503Z,1.63
2023-05-16T22:42:20.006Z,1.90
2023-05-16T22:44:48.358Z,1.47
2023-05-16T22:47:16.647Z,1.50
2023-05-16T22:49:44.943Z,1.40
2023-05-16T22:52:14.790Z,2.20
2023-05-16T22:54:43.145Z,1.13
2023-05-16T22:57:11.522Z,1.80
2023-05-16T22:59:39.917Z,1.70
2023-05-16T23:02:08.349Z,1.90
2023-05-16T23:04:36.885Z,1.50
2023-05-16T23:07:05.551Z,1.97
2023-05-16T23:09:35.392Z,1.97
2023-05-16T23:12:04.093Z,1.60
2023-05-16T23:14:32.368Z,1.70
2023-05-16T23:17:01.102Z,1.90
2023-05-16T23:19:29.585Z,1.87
2023-05-16T23:21:57.987Z,1.80
2023-05-16T23:24:26.464Z,1.90
2023-05-16T23:26:56.161Z,1.70
2023-05-16T23:29:24.601Z,2.00
2023-05-16T23:31:52.982Z,1.90
2023-05-16T23:34:21.384Z,2.00
2023-05-16T23:36:49.688Z,2.00
2023-05-16T23:39:18.501Z,1.90
2023-05-16T23:41:46.836Z,1.83
2023-05-16T23:44:16.543Z,2.20
2023-05-16T23:46:44.894Z,1.67
2023-05-16T23:49:13.271Z,2.00
2023-05-16T23:51:55.449Z,2.00
2023-05-16T23:54:24.972Z,2.93
2023-05-16T23:56:53.316Z,2.27
2023-05-16T23:59:23.075Z,2.20
